Hlavní strana
METAR-TAF:

METAR-TAF

Letiště :

Aigen im Ennstal, Rakousko

zeměpisná šířka: 47-32N, zeměpisná délka: 014-08E, výška: 638 m

METAR: chybějící

Čas: 16:52 (14:52 UTC)

Předpověď počasí

Zpráva byla vytvořena před 3 hodinami a 37 minutami, v 11:15 UTC
Předpověď platná od 27 v 12 UTC do 27 v 21 UTC
Severovýchodní vítr 8 kt
Viditelnost 10 km a více
Skoro jasno ve výšce 6000 ft
Polojasno ve výšce 15000 ft
Oblačno až skoro zataženo ve výšce 20000 ft
Dočasný
od 27 v 12 UTC do 27 v 18 UTC
vítr z různých směrů 10 kt
Skoro jasno ve výšce 5000 ft, Vertikální cumulus.
Polojasno ve výšce 6000 ft
Oblačno až skoro zataženo ve výšce 18000 ft
Pravděpodobnost 30% :
Dočasný
od 27 v 13 UTC do 27 v 18 UTC
slabé dešťové přeháňky
Změna
od 27 v 17 UTC do 27 v 19 UTC
vítr z různých směrů 3 kt

TAF: LOXA 271115Z 2712/2721 04008KT 9999 FEW060 SCT150 BKN200 TEMPO 2712/2718 VRB10KT FEW050TCU SCT060 BKN180 PROB30 TEMPO 2713/2718 -SHRA BECMG 2717/2719 VRB03KT

Stav a předpovědi počasí z více než 4 000 letišť (zprávy METAR a TAF).

Červené a žluté tečky na mapě představují dostupné meteorologické stanice.

Když kurzor umístíte na tečku, zobrazí se název stanice.

Pak kliknutím zobrazíte stav a předpověď počasí.

Chcete-li změnit mapu, kliknutím na zelené tlačítko se znaménkem +mapu přiblížíte, kliknutím na zelené tlačítko se znaménkem – mapu oddálíte a kliknutím na zelené šipky přejdete na sousední mapy.


METAR-TAF: